Weather observations for the past three days for
Block Island State Airport
Metric (Imperial)
Date Time (edt) Wind (kph) Vis. (km) Weather Sky Cond. Temperature (ºC) Relative Humidity Wind Chill (°C) Heat Index (°C) Pressure Precipitation (cm)
Air Dwpt 6 hour altimeter (cm) sea level (mb) 1 hr 3 hr 6 hr
Max. Min.
06 00:56 SW 30 G 44 16.09 Fair CLR 11.1 9.4 89% 76 1013.2
05 23:56 S 31 G 41 14.48 Fair CLR 11.1 9.4 89% 76.02 1013.4
05 22:56 SW 31 G 44 16.09 Fair CLR 11.7 9.4 86% 76 1013.2
05 21:56 SW 30 G 43 16.09 Fair CLR 11.7 8.9 83% 76 1013.3
05 20:56 SW 35 G 48 16.09 Fair and Breezy CLR 11.7 8.3 80% 75.95 1012.7
05 19:56 SW 30 G 48 14.48 Fair CLR 11.7 7.8 13.3 11.7 77% 75.9 1011.8
05 18:56 SW 35 G 50 16.09 Fair and Breezy CLR 12.2 8.3 77% 75.82 1011.0
05 17:56 S 39 G 54 16.09 Fair and Breezy CLR 12.8 8.9 77% 75.82 1010.9
05 16:56 SW 35 G 54 14.48 Fair and Breezy CLR 12.8 8.9 77% 75.82 1010.9
05 15:56 S 33 G 44 14.48 Fair and Breezy CLR 13.3 8.9 75% 75.84 1011.2
05 14:56 S 31 G 48 14.48 Fair CLR 13.3 9.4 77% 75.87 1011.5
05 13:56 S 35 G 44 14.48 Fair and Breezy CLR 13.3 8.9 13.9 11.1 75% 75.9 1012.0
05 12:56 SW 37 G 48 14.48 Fair and Breezy CLR 13.3 8.9 75% 75.92 1012.3
05 11:56 SW 30 G 44 14.48 Fair CLR 13.3 8.9 75% 76 1013.2
05 10:56 S 30 G 41 14.48 A Few Clouds FEW110 12.2 8.9 80% 75.97 1013.0
05 09:56 SW 30 G 43 12.87 Fair CLR 12.8 8.9 77% 75.97 1012.7
05 08:56 SW 30 14.48 Partly Cloudy SCT100 11.7 8.9 83% 76 1013.1
05 07:56 SW 24 14.48 Fair CLR 11.1 8.9 11.1 8.9 86% 75.95 1012.7
05 06:56 S 26 14.48 Fair CLR 10 8.3 89% 7 75.92 1012.3
05 05:56 S 22 14.48 Fair CLR 9.4 7.8 90% 7 75.9 1012.0
05 04:56 S 22 16.09 Mostly Cloudy BKN095 9.4 7.8 90% 7 75.9 1011.8
05 03:56 S 24 16.09 A Few Clouds FEW085 9.4 7.2 86% 7 75.9 1012.0
05 02:56 SW 28 G 37 16.09 Fair CLR 10 7.8 86% 7 75.92 1012.0
05 01:56 SW 26 G 37 16.09 Fair CLR 10 7.8 10 9.4 86% 7 75.95 1012.4
05 00:56 SW 26 G 39 16.09 Fair CLR 9.4 7.8 90% 6 75.95 1012.7
04 23:56 SW 26 16.09 Fair CLR 9.4 7.8 90% 6 75.97 1012.9
04 22:56 S 26 16.09 Fair CLR 9.4 7.8 90% 6 75.97 1013.0
04 21:56 SW 28 G 39 16.09 Fair CLR 9.4 7.8 90% 6 75.97 1013.0
04 20:56 SW 31 16.09 Fair CLR 10 7.2 83% 7 75.92 1012.2
04 19:56 SW 31 G 44 16.09 Fair CLR 10 6.7 13.3 10 80% 7 75.87 1011.5
04 18:56 S 30 G 43 16.09 Fair CLR 10.6 6.1 74% 75.84 1011.3
04 17:56 SW 33 G 44 16.09 Fair and Breezy CLR 11.7 6.1 69% 75.84 1011.4
04 16:56 SW 30 G 46 16.09 Fair CLR 12.2 6.1 67% 75.87 1011.4
04 15:56 SW 39 G 50 16.09 Fair and Breezy CLR 12.8 6.1 64% 75.87 1011.4
04 14:56 SW 37 G 46 16.09 Fair and Breezy CLR 12.8 6.1 64% 75.9 1011.8
04 13:56 SW 39 G 54 16.09 Fair and Breezy CLR 12.8 7.2 13.3 9.4 69% 75.92 1012.1
04 12:56 SW 35 G 46 16.09 Fair and Breezy CLR 12.8 7.2 69% 75.95 1012.5
04 11:56 SW 37 G 50 16.09 Fair and Breezy CLR 12.8 6.7 67% 75.97 1012.8
04 10:56 SW 37 G 50 16.09 Fair and Breezy CLR 12.8 6.1 64% 76 1013.1
04 09:56 SW 37 G 46 16.09 Fair and Breezy CLR 11.7 5.6 66% 76.02 1013.5
04 08:56 SW 28 G 39 16.09 Fair CLR 11.1 5.6 69% 76.02 1013.7
04 07:56 SW 30 16.09 Mostly Cloudy BKN080 9.4 5.6 10 7.2 77% 6 76.05 1013.8
04 06:56 SW 26 G 39 16.09 Partly Cloudy SCT080 8.9 5.6 80% 6 76.02 1013.6
04 05:56 SW 24 16.09 Overcast OVC080 8.3 4.4 77% 5 75.97 1013.1
04 04:56 SW 19 16.09 Overcast OVC080 8.3 5 80% 6 75.97 1013.1
04 03:56 SW 17 16.09 Mostly Cloudy BKN090 7.8 5.6 86% 5 75.95 1012.7
04 02:56 SW 13 16.09 Fair CLR 7.8 3.9 77% 6 75.95 1012.5
04 01:56 SW 15 16.09 Fair CLR 7.8 3.9 8.9 6.7 77% 6 75.92 1012.3
04 00:56 SW 17 16.09 Fair CLR 7.8 4.4 79% 5 75.92 1012.1
03 23:56 SW 17 16.09 Fair CLR 7.8 4.4 79% 5 75.92 1012.1
03 22:56 SW 20 16.09 Mostly Cloudy BKN085 8.3 2.8 69% 5 75.9 1011.9
03 21:56 SW 13 16.09 Fair CLR 6.7 1.1 68% 4 75.9 1011.8
03 20:56 W 6 16.09 Fair CLR 7.8 0 58% 75.84 1011.2
03 19:56 NW 7 16.09 Fair CLR 8.9 -1.1 12.8 8.9 50% 8 75.79 1010.4
03 18:56 NW 19 G 30 16.09 Fair CLR 10.6 -1.1 45% 75.74 1009.7
03 17:56 W 20 G 35 16.09 Fair CLR 11.7 -1.1 41% 75.67 1008.9
03 16:56 W 22 G 31 16.09 Mostly Cloudy BKN075 11.7 0 45% 75.62 1008.1
03 15:56 W 19 G 31 16.09 Overcast OVC075 12.8 1.1 45% 75.59 1007.9
03 14:56 W 24 G 37 16.09 Overcast OVC075 11.7 0 45% 75.59 1007.6
03 13:56 W 15 G 30 16.09 Overcast OVC075 11.7 -0.6 11.7 7.2 43% 75.57 1007.6
03 12:56 NW 20 G 33 16.09 Overcast OVC060 10.6 0 48% 75.57 1007.5
03 11:56 NW 19 G 35 16.09 Overcast FEW049 OVC065 10 0.6 52% 8 75.57 1007.4
03 10:56 NW 15 G 31 16.09 Mostly Cloudy SCT050 BKN055 10 1.1 54% 8 75.54 1007.2
03 09:56 NW 22 G 35 16.09 Fair CLR 10 0 50% 7 75.54 1007.2
03 08:56 NW 19 G 30 16.09 Fair CLR 8.9 -0.6 52% 6 75.57 1007.5
03 07:56 NW 19 16.09 Fair CLR 7.2 -1.1 7.8 5.6 56% 4 75.57 1007.7
03 06:56 NW 19 G 30 16.09 Fair CLR 6.7 -1.7 55% 4 75.57 1007.6
03 05:56 N 17 G 28 16.09 Partly Cloudy FEW075 SCT090 6.1 -2.2 56% 3 75.54 1007.4
03 04:56 N 17 16.09 Overcast BKN070 OVC080 6.7 -1.1 58% 4 75.57 1007.5
03 03:56 N 19 16.09 Partly Cloudy SCT080 7.2 -0.6 58% 4 75.59 1007.8
03 02:56 N 20 G 28 16.09 Overcast OVC075 7.2 -0.6 58% 4 75.62 1008.3
03 01:56 N 19 16.09 Overcast BKN050 OVC070 7.2 1.7 8.3 6.7 68% 4 75.67 1009.0
Date Time (edt) Wind (kph) Vis. (km) Weather Sky Cond. Air Dwpt Max. Min. Relative Humidity Wind Chill (°C) Heat Index (°C) altimeter (cm) sea level (mb) 1 hr 3 hr 6 hr
6 hour
Temperature (ºC) Pressure Precipitation (cm)